createdAt,value
2024-03-05T00:01:12.682Z,8.15
2024-03-05T00:07:17.907Z,8.77
2024-03-05T00:13:22.081Z,8.88
2024-03-05T00:19:26.194Z,8.68
2024-03-05T00:25:31.138Z,8.57
2024-03-05T00:31:34.608Z,8.73
2024-03-05T00:37:38.742Z,7.70
2024-03-05T00:43:43.765Z,7.53
2024-03-05T00:49:47.470Z,7.43
2024-03-05T00:55:50.951Z,6.75
2024-03-05T01:01:57.186Z,6.68
2024-03-05T01:08:01.082Z,6.57
2024-03-05T01:14:05.720Z,6.43
2024-03-05T01:20:17.142Z,6.65
2024-03-05T01:26:20.859Z,7.40
2024-03-05T01:32:24.314Z,6.60
2024-03-05T01:38:29.545Z,6.47
2024-03-05T01:44:34.668Z,6.82
2024-03-05T01:50:38.277Z,5.72
2024-03-05T01:56:43.985Z,5.78
2024-03-05T02:02:47.507Z,6.18
2024-03-05T02:08:51.072Z,6.20
2024-03-05T02:14:55.989Z,6.10
2024-03-05T02:21:03.030Z,5.78
2024-03-05T02:27:08.332Z,5.93
2024-03-05T02:33:14.631Z,6.10
2024-03-05T02:39:20.356Z,5.93
2024-03-05T02:45:23.800Z,5.93
2024-03-05T02:51:30.137Z,6.03
2024-03-05T02:57:35.084Z,5.80
2024-03-05T03:03:38.585Z,5.53
2024-03-05T03:09:42.051Z,5.60
2024-03-05T03:15:48.729Z,5.63
2024-03-05T03:21:52.540Z,5.57
2024-03-05T03:27:56.088Z,5.38
2024-03-05T03:34:00.900Z,5.28
2024-03-05T03:40:06.145Z,5.85
2024-03-05T03:46:09.588Z,5.28
2024-03-05T03:52:14.468Z,5.38
2024-03-05T03:58:18.533Z,5.25
2024-03-05T04:04:22.374Z,5.53
2024-03-05T04:10:27.289Z,5.50
2024-03-05T04:16:31.105Z,5.57
2024-03-05T04:22:34.562Z,5.45
2024-03-05T04:28:50.228Z,5.32
2024-03-05T04:35:01.754Z,5.55
2024-03-05T04:41:05.837Z,5.50
2024-03-05T04:47:10.886Z,5.50
2024-03-05T04:53:15.554Z,5.20
2024-03-05T04:59:19.158Z,5.63
2024-03-05T05:05:27.250Z,5.80
2024-03-05T05:11:31.536Z,5.63
2024-03-05T05:17:35.502Z,7.05
2024-03-05T05:23:40.832Z,7.60
2024-03-05T05:29:44.990Z,5.97
2024-03-05T05:35:48.569Z,5.40
2024-03-05T05:41:53.699Z,6.78
2024-03-05T05:47:58.234Z,6.72
2024-03-05T05:54:02.996Z,8.10
2024-03-05T06:00:13.305Z,5.80
2024-03-05T06:06:18.106Z,5.30
2024-03-05T06:12:24.285Z,5.30
2024-03-05T06:18:30.254Z,6.43
2024-03-05T06:24:33.657Z,5.60
2024-03-05T06:30:37.172Z,5.95
2024-03-05T06:36:47.875Z,5.38
2024-03-05T06:43:04.979Z,5.28
2024-03-05T06:49:09.655Z,6.15
2024-03-05T06:55:32.352Z,6.45
2024-03-05T07:01:36.273Z,6.00
2024-03-05T07:07:40.366Z,6.35
2024-03-05T07:13:48.468Z,6.13
2024-03-05T07:19:52.138Z,5.50
2024-03-05T07:25:55.829Z,4.97
2024-03-05T07:32:00.857Z,5.32
2024-03-05T07:38:04.432Z,5.07
2024-03-05T07:44:08.059Z,5.55
2024-03-05T07:50:13.624Z,5.20
2024-03-05T07:56:17.230Z,5.10
2024-03-05T08:02:20.769Z,5.15
2024-03-05T08:08:26.809Z,9.02
2024-03-05T08:14:31.421Z,8.63
2024-03-05T08:20:34.911Z,9.80
2024-03-05T08:26:40.520Z,8.40
2024-03-05T08:32:45.040Z,10.55
2024-03-05T08:38:48.790Z,6.03
2024-03-05T08:44:54.260Z,6.80
2024-03-05T08:50:59.788Z,9.68
2024-03-05T08:57:03.566Z,4.93
2024-03-05T09:03:10.534Z,5.07
2024-03-05T09:09:14.949Z,6.20
2024-03-05T09:15:18.529Z,5.45
2024-03-05T09:21:23.534Z,6.30
2024-03-05T09:27:27.042Z,5.63
2024-03-05T09:33:31.717Z,5.20
2024-03-05T09:39:37.141Z,4.65
2024-03-05T09:45:40.581Z,5.00
2024-03-05T09:51:44.473Z,5.25
2024-03-05T09:57:51.361Z,5.40
2024-03-05T10:03:55.049Z,5.53
2024-03-05T10:10:10.374Z,5.40
2024-03-05T10:16:19.648Z,5.15
2024-03-05T10:22:23.184Z,4.75
2024-03-05T10:28:32.164Z,5.28
2024-03-05T10:34:47.467Z,4.82
2024-03-05T10:40:51.711Z,5.03
2024-03-05T10:46:55.395Z,4.65
2024-03-05T10:53:00.351Z,5.22
2024-03-05T10:59:33.713Z,5.60
2024-03-05T11:05:42.219Z,6.30
2024-03-05T11:11:49.458Z,7.15
2024-03-05T11:17:53.016Z,6.47
2024-03-05T11:23:58.864Z,7.18
2024-03-05T11:30:09.980Z,7.85
2024-03-05T11:36:18.378Z,7.43
2024-03-05T11:42:24.774Z,8.05
2024-03-05T11:48:29.643Z,7.15
2024-03-05T11:54:34.639Z,7.70
2024-03-05T12:00:38.091Z,8.18
2024-03-05T12:06:44.638Z,8.35
2024-03-05T12:12:53.403Z,7.40
2024-03-05T12:19:01.232Z,6.03
2024-03-05T12:25:06.316Z,6.32
2024-03-05T12:31:10.522Z,8.07
2024-03-05T12:37:14.288Z,7.55
2024-03-05T12:43:19.188Z,6.47
2024-03-05T12:49:22.853Z,7.30
2024-03-05T12:55:26.364Z,6.95
2024-03-05T13:01:31.399Z,6.50
2024-03-05T13:07:36.613Z,7.00
2024-03-05T13:13:40.329Z,7.13
2024-03-05T13:19:46.374Z,7.00
2024-03-05T13:25:50.711Z,6.95
2024-03-05T13:31:54.452Z,6.93
2024-03-05T13:37:59.542Z,7.20
2024-03-05T13:44:03.180Z,7.60
2024-03-05T13:50:11.153Z,8.50
2024-03-05T13:56:16.092Z,9.05
2024-03-05T14:02:20.530Z,7.97
2024-03-05T14:08:24.148Z,7.72
2024-03-05T14:14:28.968Z,7.43
2024-03-05T14:20:33.694Z,7.30
2024-03-05T14:26:37.296Z,7.30
2024-03-05T14:32:44.137Z,7.15
2024-03-05T14:38:48.003Z,6.32
2024-03-05T14:44:51.476Z,6.40
2024-03-05T14:50:56.365Z,7.47
2024-03-05T14:57:00.011Z,5.60
2024-03-05T15:03:03.531Z,5.05
2024-03-05T15:09:08.994Z,6.95
2024-03-05T15:15:12.786Z,8.77
2024-03-05T15:21:16.398Z,5.70
2024-03-05T15:27:21.274Z,6.90
2024-03-05T15:33:24.937Z,9.43
2024-03-05T15:39:28.470Z,6.68
2024-03-05T15:45:33.456Z,7.43
2024-03-05T15:51:36.931Z,7.30
2024-03-05T15:57:55.378Z,6.70
2024-03-05T16:04:30.069Z,6.78
2024-03-05T16:10:41.641Z,8.00
2024-03-05T16:16:51.256Z,6.18
2024-03-05T16:22:56.283Z,5.85
2024-03-05T16:29:00.987Z,6.05
2024-03-05T16:35:07.085Z,6.55
2024-03-05T16:41:12.168Z,6.25
2024-03-05T16:47:15.745Z,8.00
2024-03-05T16:53:19.480Z,7.53
2024-03-05T16:59:24.666Z,7.53
2024-03-05T17:05:28.631Z,7.82
2024-03-05T17:11:32.220Z,7.43
2024-03-05T17:17:38.784Z,9.27
2024-03-05T17:23:46.434Z,7.40
2024-03-05T17:29:50.120Z,7.50
2024-03-05T17:35:56.745Z,7.72
2024-03-05T17:42:00.433Z,9.55
2024-03-05T17:48:07.171Z,9.73
2024-03-05T17:54:12.585Z,9.00
2024-03-05T18:00:23.110Z,8.35
2024-03-05T18:06:27.006Z,8.68
2024-03-05T18:12:32.504Z,10.57
2024-03-05T18:18:36.160Z,9.73
2024-03-05T18:24:40.721Z,9.75
2024-03-05T18:30:46.227Z,8.45
2024-03-05T18:36:51.006Z,8.48
2024-03-05T18:42:55.707Z,8.50
2024-03-05T18:49:00.634Z,9.30
2024-03-05T18:55:06.417Z,10.65
2024-03-05T19:01:11.455Z,11.82
2024-03-05T19:07:17.283Z,13.80
2024-03-05T19:13:21.384Z,18.40
2024-03-05T19:19:26.798Z,13.18
2024-03-05T19:25:31.923Z,11.73
2024-03-05T19:31:35.476Z,10.85
2024-03-05T19:37:40.202Z,10.68
2024-03-05T19:43:47.089Z,10.93
2024-03-05T19:49:50.601Z,11.25
2024-03-05T19:55:54.247Z,11.88
2024-03-05T20:01:59.208Z,11.68
2024-03-05T20:08:02.754Z,11.18
2024-03-05T20:14:07.184Z,11.30
2024-03-05T20:20:17.646Z,10.60
2024-03-05T20:26:22.261Z,11.98
2024-03-05T20:32:30.442Z,10.13
2024-03-05T20:38:35.698Z,12.52
2024-03-05T20:44:40.756Z,10.95
2024-03-05T20:50:45.349Z,10.68
2024-03-05T20:56:51.530Z,10.65
2024-03-05T21:02:57.016Z,11.68
2024-03-05T21:09:01.416Z,11.27
2024-03-05T21:15:06.754Z,11.25
2024-03-05T21:21:14.969Z,12.50
2024-03-05T21:27:21.402Z,15.85
2024-03-05T21:33:26.952Z,14.32
2024-03-05T21:39:30.488Z,13.45
2024-03-05T21:45:34.042Z,12.82
2024-03-05T21:51:39.192Z,13.52
2024-03-05T21:57:42.891Z,11.95
2024-03-05T22:03:46.323Z,12.88
2024-03-05T22:09:51.131Z,13.93
2024-03-05T22:15:54.602Z,16.63
2024-03-05T22:21:58.040Z,13.35
2024-03-05T22:28:02.858Z,13.00
2024-03-05T22:34:06.337Z,15.88
2024-03-05T22:40:11.658Z,15.80
2024-03-05T22:46:16.693Z,15.75
2024-03-05T22:52:21.058Z,16.13
2024-03-05T22:58:24.600Z,14.45
2024-03-05T23:04:29.548Z,14.65
2024-03-05T23:10:34.001Z,14.55
2024-03-05T23:16:38.284Z,14.63
2024-03-05T23:22:43.248Z,13.82
2024-03-05T23:28:46.736Z,13.65
2024-03-05T23:34:50.239Z,13.48
2024-03-05T23:40:56.029Z,14.18
2024-03-05T23:46:59.732Z,14.52
2024-03-05T23:53:03.424Z,14.40
2024-03-05T23:59:08.822Z,13.73
